< < Back
Terminal Aerodrome Forecast


Current Version              Previous Versions:   1  2  3  4  5  6  7  8  9  

Terminal Aerodrome Forecast

505
FTUS42 KTAE 251100
TAFTLH
TAF
KTLH 251120Z 2512/2612 00000KT P6SM SKC
     FM251400 35007KT P6SM SKC
     FM260000 00000KT P6SM SKC=

Latest METAR

341
SAUS80 KWBC 252200 CCA
MTRTLH
METAR KTLH 252153Z 32008KT 10SM CLR 26/06 A2999 RMK AO2 SLP153 T02610061
$


USA.gov is the U.S. government's official web portal to all federal, state and local government web resources and services.